createdAt,value
2023-05-06T00:00:58.481Z,101823.25
2023-05-06T00:03:24.879Z,101813.72
2023-05-06T00:05:51.453Z,101811.91
2023-05-06T00:08:17.973Z,101812.00
2023-05-06T00:10:45.044Z,101803.72
2023-05-06T00:13:12.836Z,101817.34
2023-05-06T00:15:40.349Z,101812.66
2023-05-06T00:18:07.039Z,101811.66
2023-05-06T00:20:33.399Z,101811.66
2023-05-06T00:23:00.018Z,101809.09
2023-05-06T00:25:26.707Z,101814.22
2023-05-06T00:27:54.095Z,101810.81
2023-05-06T00:30:20.441Z,101818.03
2023-05-06T00:32:46.875Z,101811.06
2023-05-06T00:35:13.352Z,101805.72
2023-05-06T00:37:39.709Z,101811.00
2023-05-06T00:40:06.876Z,101803.81
2023-05-06T00:42:33.291Z,101808.97
2023-05-06T00:44:59.678Z,101798.31
2023-05-06T00:47:26.494Z,101799.16
2023-05-06T00:49:52.983Z,101801.97
2023-05-06T00:52:19.831Z,101809.38
2023-05-06T00:54:46.237Z,101807.91
2023-05-06T00:57:12.760Z,101800.94
2023-05-06T00:59:39.658Z,101806.19
2023-05-06T01:02:06.041Z,101799.91
2023-05-06T01:07:33.593Z,101795.16
2023-05-06T01:10:20.033Z,101790.72
2023-05-06T01:13:03.593Z,101787.16
2023-05-06T01:15:58.405Z,101787.66
2023-05-06T01:18:26.926Z,101785.88
2023-05-06T01:20:54.680Z,101785.28
2023-05-06T01:23:21.055Z,101786.38
2023-05-06T01:25:47.448Z,101783.47
2023-05-06T01:28:13.996Z,101783.41
2023-05-06T01:30:55.876Z,101781.69
2023-05-06T01:33:48.623Z,101772.09
2023-05-06T01:36:39.004Z,101774.63
2023-05-06T01:39:18.399Z,101776.44
2023-05-06T01:41:48.668Z,101777.78
2023-05-06T01:44:16.290Z,101772.00
2023-05-06T01:46:45.075Z,101773.16
2023-05-06T01:49:12.615Z,101771.53
2023-05-06T01:51:39.218Z,101785.75
2023-05-06T01:54:05.709Z,101783.38
2023-05-06T01:56:32.243Z,101779.13
2023-05-06T01:58:59.648Z,101788.09
2023-05-06T02:01:26.539Z,101783.84
2023-05-06T02:03:53.104Z,101784.63
2023-05-06T02:06:19.744Z,101785.41
2023-05-06T02:08:46.452Z,101789.81
2023-05-06T02:11:12.781Z,101784.63
2023-05-06T02:13:39.154Z,101784.63
2023-05-06T02:16:05.776Z,101791.00
2023-05-06T02:18:32.234Z,101798.31
2023-05-06T02:20:58.599Z,101794.91
2023-05-06T02:23:24.908Z,101802.19
2023-05-06T02:25:51.737Z,101802.38
2023-05-06T02:28:18.123Z,101804.22
2023-05-06T02:30:44.619Z,101797.09
2023-05-06T02:33:11.008Z,101803.13
2023-05-06T02:35:37.552Z,101795.38
2023-05-06T02:38:04.316Z,101794.59
2023-05-06T02:40:30.792Z,101787.66
2023-05-06T02:42:57.250Z,101793.84
2023-05-06T02:45:23.726Z,101796.72
2023-05-06T02:47:50.157Z,101796.88
2023-05-06T02:50:16.977Z,101800.53
2023-05-06T02:52:43.387Z,101805.84
2023-05-06T02:55:10.108Z,101797.94
2023-05-06T02:57:36.646Z,101789.91
2023-05-06T03:00:03.410Z,101795.31
2023-05-06T03:02:29.851Z,101804.22
2023-05-06T03:04:56.218Z,101799.03
2023-05-06T03:07:22.682Z,101801.59
2023-05-06T03:09:49.107Z,101800.75
2023-05-06T03:12:15.528Z,101796.59
2023-05-06T03:14:41.979Z,101790.63
2023-05-06T03:17:08.422Z,101793.41
2023-05-06T03:19:34.814Z,101789.81
2023-05-06T03:22:01.205Z,101784.56
2023-05-06T03:24:27.640Z,101786.44
2023-05-06T03:26:54.079Z,101782.19
2023-05-06T03:29:20.537Z,101784.19
2023-05-06T03:31:50.666Z,101792.28
2023-05-06T03:34:17.131Z,101788.03
2023-05-06T03:36:43.548Z,101789.03
2023-05-06T03:39:10.469Z,101789.97
2023-05-06T03:41:36.941Z,101789.19
2023-05-06T03:44:03.312Z,101786.56
2023-05-06T03:46:29.728Z,101783.94
2023-05-06T03:48:56.245Z,101791.75
2023-05-06T03:51:22.626Z,101795.31
2023-05-06T03:53:49.043Z,101792.69
2023-05-06T03:56:18.150Z,101794.59
2023-05-06T03:58:44.648Z,101799.75
2023-05-06T04:01:10.952Z,101797.16
2023-05-06T04:03:37.395Z,101795.00
2023-05-06T04:06:04.202Z,101791.50
2023-05-06T04:08:30.641Z,101788.09
2023-05-06T04:10:57.357Z,101796.91
2023-05-06T04:13:23.748Z,101802.34
2023-05-06T04:15:50.385Z,101797.88
2023-05-06T04:18:19.159Z,101787.09
2023-05-06T04:20:47.875Z,101786.97
2023-05-06T04:23:14.722Z,101784.25
2023-05-06T04:25:42.599Z,101781.53
2023-05-06T04:28:11.244Z,101787.97
2023-05-06T04:30:37.957Z,101785.31
2023-05-06T04:33:04.453Z,101787.78
2023-05-06T04:35:31.110Z,101794.78
2023-05-06T04:37:57.684Z,101798.78
2023-05-06T04:40:26.166Z,101817.22
2023-05-06T04:42:52.531Z,101810.09
2023-05-06T04:45:18.832Z,101808.25
2023-05-06T04:47:45.548Z,101815.06
2023-05-06T04:50:12.040Z,101815.84
2023-05-06T04:52:38.462Z,101819.25
2023-05-06T04:55:05.405Z,101819.25
2023-05-06T04:57:32.257Z,101821.94
2023-05-06T04:59:58.618Z,101827.22
2023-05-06T05:02:25.031Z,101826.22
2023-05-06T05:04:51.735Z,101833.34
2023-05-06T05:07:18.098Z,101835.19
2023-05-06T05:09:45.343Z,101834.66
2023-05-06T05:12:11.731Z,101844.47
2023-05-06T05:14:38.131Z,101841.69
2023-05-06T05:17:04.577Z,101848.66
2023-05-06T05:19:30.932Z,101849.75
2023-05-06T05:21:57.315Z,101847.75
2023-05-06T05:24:23.680Z,101845.91
2023-05-06T05:26:50.102Z,101848.38
2023-05-06T05:29:16.523Z,101841.00
2023-05-06T05:31:42.988Z,101844.22
2023-05-06T05:34:09.408Z,101844.00
2023-05-06T05:36:35.806Z,101839.44
2023-05-06T05:39:02.180Z,101840.97
2023-05-06T05:41:28.615Z,101840.84
2023-05-06T05:43:55.003Z,101846.97
2023-05-06T05:46:21.577Z,101844.25
2023-05-06T05:48:47.950Z,101836.19
2023-05-06T05:51:14.390Z,101847.41
2023-05-06T05:53:40.835Z,101849.03
2023-05-06T05:56:07.512Z,101848.91
2023-05-06T05:58:34.566Z,101846.19
2023-05-06T06:01:01.553Z,101848.66
2023-05-06T06:03:27.951Z,101853.88
2023-05-06T06:05:55.291Z,101851.13
2023-05-06T06:08:21.785Z,101851.97
2023-05-06T06:10:48.171Z,101849.34
2023-05-06T06:13:14.707Z,101851.06
2023-05-06T06:15:41.342Z,101848.41
2023-05-06T06:18:08.981Z,101852.69
2023-05-06T06:20:36.466Z,101851.69
2023-05-06T06:23:02.885Z,101847.19
2023-05-06T06:25:29.263Z,101850.56
2023-05-06T06:27:56.657Z,101852.28
2023-05-06T06:30:23.254Z,101863.75
2023-05-06T06:32:51.720Z,101858.47
2023-05-06T06:35:19.841Z,101855.00
2023-05-06T06:37:46.717Z,101859.56
2023-05-06T06:40:13.624Z,101851.53
2023-05-06T06:42:39.981Z,101861.91
2023-05-06T06:45:09.216Z,101855.72
2023-05-06T06:47:36.186Z,101860.91
2023-05-06T06:50:02.900Z,101861.59
2023-05-06T06:52:29.227Z,101866.69
2023-05-06T06:54:55.578Z,101865.78
2023-05-06T06:57:21.924Z,101871.84
2023-05-06T06:59:50.302Z,101880.50
2023-05-06T07:02:16.690Z,101877.78
2023-05-06T07:04:43.267Z,101877.72
2023-05-06T07:07:09.676Z,101880.28
2023-05-06T07:09:36.493Z,101874.06
2023-05-06T07:12:04.002Z,101875.59
2023-05-06T07:14:30.373Z,101869.13
2023-05-06T07:16:56.835Z,101864.47
2023-05-06T07:19:23.240Z,101866.09
2023-05-06T07:21:49.571Z,101873.94
2023-05-06T07:24:15.965Z,101880.06
2023-05-06T07:26:42.334Z,101878.88
2023-05-06T07:29:08.730Z,101885.03
2023-05-06T07:31:35.175Z,101884.75
2023-05-06T07:34:01.781Z,101887.25
2023-05-06T07:36:28.794Z,101881.81
2023-05-06T07:38:55.218Z,101881.66
2023-05-06T07:41:21.627Z,101872.72
2023-05-06T07:43:47.995Z,101872.44
2023-05-06T07:46:14.452Z,101879.34
2023-05-06T07:48:40.899Z,101880.97
2023-05-06T07:51:07.321Z,101887.88
2023-05-06T07:53:33.732Z,101885.91
2023-05-06T07:56:02.547Z,101886.53
2023-05-06T07:58:30.168Z,101881.84
2023-05-06T08:00:56.606Z,101885.16
2023-05-06T08:03:23.193Z,101892.25
2023-05-06T08:05:51.275Z,101884.00
2023-05-06T08:08:21.544Z,101883.75
2023-05-06T08:10:47.961Z,101880.09
2023-05-06T08:13:14.456Z,101885.19
2023-05-06T08:15:41.026Z,101883.22
2023-05-06T08:18:20.911Z,101890.91
2023-05-06T08:20:48.458Z,101892.28
2023-05-06T08:23:14.907Z,101895.41
2023-05-06T08:25:41.292Z,101889.94
2023-05-06T08:28:07.773Z,101892.34
2023-05-06T08:30:34.214Z,101891.22
2023-05-06T08:33:02.209Z,101898.03
2023-05-06T08:35:28.655Z,101888.97
2023-05-06T08:37:55.084Z,101898.16
2023-05-06T08:40:23.923Z,101895.06
2023-05-06T08:42:50.767Z,101896.53
2023-05-06T08:45:17.700Z,101897.28
2023-05-06T08:47:44.485Z,101891.91
2023-05-06T08:50:11.183Z,101891.72
2023-05-06T08:52:39.110Z,101894.00
2023-05-06T08:55:07.187Z,101891.09
2023-05-06T08:57:34.425Z,101891.00
2023-05-06T09:00:01.302Z,101894.25
2023-05-06T09:02:28.333Z,101891.19
2023-05-06T09:04:56.798Z,101894.41
2023-05-06T09:07:24.312Z,101883.66
2023-05-06T09:09:51.624Z,101888.88
2023-05-06T09:12:18.530Z,101885.38
2023-05-06T09:14:46.568Z,101888.75
2023-05-06T09:17:24.516Z,101881.41
2023-05-06T09:19:52.813Z,101882.31
2023-05-06T09:22:22.111Z,101881.56
2023-05-06T09:24:58.005Z,101875.78
2023-05-06T09:27:29.234Z,101881.16
2023-05-06T09:30:11.566Z,101878.13
2023-05-06T09:32:39.971Z,101875.00
2023-05-06T09:35:08.382Z,101875.88
2023-05-06T09:37:35.048Z,101875.00
2023-05-06T09:40:01.716Z,101868.66
2023-05-06T09:42:29.794Z,101864.03
2023-05-06T09:44:59.873Z,101864.84
2023-05-06T09:47:32.959Z,101861.63
2023-05-06T09:50:01.459Z,101857.16
2023-05-06T09:52:28.727Z,101863.97
2023-05-06T09:54:55.492Z,101867.75
2023-05-06T09:57:22.904Z,101848.25
2023-05-06T09:59:52.122Z,101853.38
2023-05-06T10:02:19.680Z,101848.75
2023-05-06T10:04:48.724Z,101853.72
2023-05-06T10:07:19.573Z,101847.47
2023-05-06T10:09:46.773Z,101855.97
2023-05-06T10:12:13.819Z,101853.88
2023-05-06T10:14:40.335Z,101853.66
2023-05-06T10:17:09.437Z,101850.81
2023-05-06T10:19:40.034Z,101846.25
2023-05-06T10:22:27.216Z,101839.81
2023-05-06T10:25:05.563Z,101839.13
2023-05-06T10:27:35.778Z,101838.06
2023-05-06T10:30:02.156Z,101840.31
2023-05-06T10:32:32.483Z,101842.34
2023-05-06T10:35:08.906Z,101838.53
2023-05-06T10:37:37.824Z,101835.88
2023-05-06T10:40:05.391Z,101836.22
2023-05-06T10:42:35.474Z,101831.44
2023-05-06T10:45:03.905Z,101832.81
2023-05-06T10:47:56.267Z,101822.03
2023-05-06T10:50:24.528Z,101827.84
2023-05-06T10:52:59.853Z,101821.16
2023-05-06T10:55:27.461Z,101820.31
2023-05-06T10:57:56.566Z,101817.78
2023-05-06T11:00:23.477Z,101815.00
2023-05-06T11:02:57.429Z,101819.88
2023-05-06T11:05:24.798Z,101811.50
2023-05-06T11:07:52.446Z,101818.59
2023-05-06T11:10:34.436Z,101815.00
2023-05-06T11:13:19.993Z,101820.31
2023-05-06T11:15:46.901Z,101821.47
2023-05-06T11:18:25.444Z,101815.63
2023-05-06T11:21:12.606Z,101812.03
2023-05-06T11:24:08.263Z,101808.84
2023-05-06T11:26:35.025Z,101811.06
2023-05-06T11:29:04.012Z,101808.16
2023-05-06T11:31:38.465Z,101812.81
2023-05-06T11:34:09.002Z,101803.91
2023-05-06T11:36:37.209Z,101810.16
2023-05-06T11:39:09.526Z,101807.06
2023-05-06T11:41:39.672Z,101800.25
2023-05-06T11:44:06.440Z,101804.16
2023-05-06T11:46:33.524Z,101811.06
2023-05-06T11:49:00.645Z,101796.78
2023-05-06T11:51:27.270Z,101796.22
2023-05-06T11:54:10.888Z,101795.66
2023-05-06T11:56:48.683Z,101794.59
2023-05-06T11:59:15.553Z,101796.66
2023-05-06T12:01:43.402Z,101788.03
2023-05-06T12:04:11.012Z,101796.50
2023-05-06T12:06:38.261Z,101796.25
2023-05-06T12:09:06.982Z,101796.38
2023-05-06T12:11:34.946Z,101796.50
2023-05-06T12:14:04.960Z,101797.22
2023-05-06T12:16:31.832Z,101793.59
2023-05-06T12:18:58.255Z,101788.75
2023-05-06T12:21:25.083Z,101791.75
2023-05-06T12:23:59.407Z,101797.47
2023-05-06T12:26:30.466Z,101793.72
2023-05-06T12:29:08.883Z,101797.22
2023-05-06T12:31:35.736Z,101793.59
2023-05-06T12:34:03.154Z,101795.06
2023-05-06T12:36:30.622Z,101795.31
2023-05-06T12:38:59.353Z,101787.22
2023-05-06T12:41:42.656Z,101794.59
2023-05-06T12:44:38.125Z,101787.25
2023-05-06T12:47:09.538Z,101790.75
2023-05-06T12:49:57.896Z,101780.09
2023-05-06T12:52:27.429Z,101789.00
2023-05-06T12:54:54.102Z,101784.91
2023-05-06T12:57:21.042Z,101784.78
2023-05-06T12:59:49.262Z,101789.03
2023-05-06T13:02:16.104Z,101786.25
2023-05-06T13:07:22.426Z,101785.63
2023-05-06T13:09:48.914Z,101785.50
2023-05-06T13:12:15.315Z,101788.66
2023-05-06T13:14:41.720Z,101787.94
2023-05-06T13:17:08.651Z,101797.16
2023-05-06T13:19:35.121Z,101787.00
2023-05-06T13:22:01.968Z,101784.81
2023-05-06T13:24:29.092Z,101783.59
2023-05-06T13:26:56.921Z,101789.66
2023-05-06T13:29:23.748Z,101784.09
2023-05-06T13:31:50.955Z,101793.28
2023-05-06T13:34:17.456Z,101786.25
2023-05-06T13:36:43.891Z,101777.69
2023-05-06T13:39:10.221Z,101778.16
2023-05-06T13:41:36.598Z,101769.81
2023-05-06T13:44:03.491Z,101775.38
2023-05-06T13:46:30.066Z,101768.63
2023-05-06T13:48:56.438Z,101771.28
2023-05-06T13:51:22.859Z,101754.56
2023-05-06T13:53:49.211Z,101763.41
2023-05-06T13:56:15.619Z,101756.28
2023-05-06T13:58:41.973Z,101765.22
2023-05-06T14:01:08.349Z,101755.78
2023-05-06T14:03:34.771Z,101750.97
2023-05-06T14:06:01.353Z,101748.78
2023-05-06T14:08:27.758Z,101751.19
2023-05-06T14:10:54.191Z,101753.63
2023-05-06T14:13:20.727Z,101744.28
2023-05-06T14:15:47.311Z,101739.22
2023-05-06T14:18:13.841Z,101736.44
2023-05-06T14:20:40.243Z,101730.84
2023-05-06T14:23:06.951Z,101728.09
2023-05-06T14:25:33.523Z,101733.78
2023-05-06T14:28:00.152Z,101733.03
2023-05-06T14:30:26.694Z,101729.75
2023-05-06T14:32:53.120Z,101734.38
2023-05-06T14:35:19.640Z,101730.16
2023-05-06T14:37:46.154Z,101723.97
2023-05-06T14:40:13.033Z,101725.66
2023-05-06T14:42:39.378Z,101719.97
2023-05-06T14:45:06.823Z,101724.78
2023-05-06T14:47:33.224Z,101720.66
2023-05-06T14:49:59.838Z,101715.06
2023-05-06T14:52:26.265Z,101719.09
2023-05-06T14:54:52.618Z,101718.25
2023-05-06T14:57:19.025Z,101715.34
2023-05-06T14:59:46.051Z,101717.88
2023-05-06T15:02:12.463Z,101712.81
2023-05-06T15:04:38.817Z,101717.25
2023-05-06T15:07:05.326Z,101715.59
2023-05-06T15:09:31.958Z,101716.56
2023-05-06T15:11:58.494Z,101711.22
2023-05-06T15:14:24.903Z,101716.56
2023-05-06T15:16:56.855Z,101713.63
2023-05-06T15:19:23.738Z,101721.38
2023-05-06T15:21:50.573Z,101714.38
2023-05-06T15:24:17.100Z,101718.81
2023-05-06T15:26:43.540Z,101714.84
2023-05-06T15:29:09.930Z,101714.59
2023-05-06T15:31:39.136Z,101716.28
2023-05-06T15:34:06.893Z,101712.53
2023-05-06T15:36:33.413Z,101718.00
2023-05-06T15:39:01.034Z,101708.19
2023-05-06T15:41:38.263Z,101716.06
2023-05-06T15:44:06.100Z,101716.06
2023-05-06T15:46:33.306Z,101709.03
2023-05-06T15:49:15.762Z,101718.81
2023-05-06T15:51:46.732Z,101715.19
2023-05-06T15:54:15.352Z,101709.03
2023-05-06T15:56:41.869Z,101708.19
2023-05-06T15:59:08.641Z,101712.66
2023-05-06T16:01:57.361Z,101711.44
2023-05-06T16:04:22.073Z,101724.75
2023-05-06T16:06:49.206Z,101713.28
2023-05-06T16:09:15.601Z,101722.97
2023-05-06T16:11:41.922Z,101715.66
2023-05-06T16:14:08.341Z,101718.19
2023-05-06T16:16:34.945Z,101713.88
2023-05-06T16:19:01.545Z,101719.19
2023-05-06T16:21:28.537Z,101719.19
2023-05-06T16:23:54.988Z,101719.19
2023-05-06T16:26:21.440Z,101717.50
2023-05-06T16:28:47.903Z,101718.34
2023-05-06T16:31:14.423Z,101711.22
2023-05-06T16:33:40.975Z,101713.00
2023-05-06T16:36:07.834Z,101721.97
2023-05-06T16:38:34.232Z,101712.88
2023-05-06T16:41:00.830Z,101714.84
2023-05-06T16:43:27.161Z,101714.97
2023-05-06T16:45:53.494Z,101715.81
2023-05-06T16:48:19.929Z,101719.31
2023-05-06T16:50:46.523Z,101719.44
2023-05-06T16:53:13.110Z,101713.50
2023-05-06T16:55:39.741Z,101719.69
2023-05-06T16:58:06.344Z,101717.03
2023-05-06T17:00:32.883Z,101715.34
2023-05-06T17:02:59.431Z,101719.69
2023-05-06T17:05:27.958Z,101718.81
2023-05-06T17:07:54.413Z,101713.63
2023-05-06T17:10:21.889Z,101715.47
2023-05-06T17:12:48.251Z,101712.94
2023-05-06T17:15:14.659Z,101711.09
2023-05-06T17:17:41.113Z,101715.69
2023-05-06T17:20:08.432Z,101709.53
2023-05-06T17:22:34.899Z,101719.34
2023-05-06T17:25:01.270Z,101716.78
2023-05-06T17:27:27.626Z,101709.78
2023-05-06T17:29:53.951Z,101711.72
2023-05-06T17:32:20.653Z,101712.56
2023-05-06T17:34:47.035Z,101719.97
2023-05-06T17:37:13.394Z,101715.59
2023-05-06T17:39:39.818Z,101701.56
2023-05-06T17:42:06.325Z,101706.06
2023-05-06T17:44:35.199Z,101715.84
2023-05-06T17:47:01.703Z,101708.84
2023-05-06T17:49:28.205Z,101718.03
2023-05-06T17:51:55.962Z,101725.19
2023-05-06T17:54:22.572Z,101736.56
2023-05-06T17:56:52.864Z,101741.75
2023-05-06T17:59:20.045Z,101745.88
2023-05-06T18:01:46.863Z,101748.06
2023-05-06T18:04:13.932Z,101750.44
2023-05-06T18:06:41.791Z,101752.75
2023-05-06T18:09:10.185Z,101751.72
2023-05-06T18:11:37.985Z,101761.00
2023-05-06T18:14:05.368Z,101756.38
2023-05-06T18:16:31.785Z,101762.16
2023-05-06T18:19:00.636Z,101769.75
2023-05-06T18:21:27.675Z,101768.63
2023-05-06T18:24:01.895Z,101770.91
2023-05-06T18:26:43.875Z,101771.97
2023-05-06T18:29:11.838Z,101767.00
2023-05-06T18:31:38.311Z,101768.31
2023-05-06T18:34:04.762Z,101770.47
2023-05-06T18:36:31.147Z,101765.16
2023-05-06T18:38:57.598Z,101767.31
2023-05-06T18:41:24.960Z,101770.06
2023-05-06T18:43:51.353Z,101775.25
2023-05-06T18:46:17.798Z,101775.16
2023-05-06T18:48:44.274Z,101769.00
2023-05-06T18:51:15.710Z,101771.78
2023-05-06T18:53:43.136Z,101774.97
2023-05-06T18:56:10.574Z,101773.28
2023-05-06T18:58:38.460Z,101769.63
2023-05-06T19:01:10.998Z,101781.19
2023-05-06T19:03:38.337Z,101784.78
2023-05-06T19:06:08.086Z,101787.13
2023-05-06T19:08:35.289Z,101793.91
2023-05-06T19:11:02.430Z,101791.38
2023-05-06T19:13:28.893Z,101798.16
2023-05-06T19:15:56.016Z,101798.97
2023-05-06T19:18:22.469Z,101804.19
2023-05-06T19:20:48.808Z,101801.31
2023-05-06T19:23:15.126Z,101801.19
2023-05-06T19:25:41.521Z,101796.63
2023-05-06T19:28:09.453Z,101802.03
2023-05-06T19:30:36.173Z,101808.09
2023-05-06T19:33:03.394Z,101808.34
2023-05-06T19:35:30.208Z,101810.47
2023-05-06T19:37:56.667Z,101816.00
2023-05-06T19:40:23.300Z,101812.50
2023-05-06T19:42:49.680Z,101807.31
2023-05-06T19:45:18.133Z,101805.81
2023-05-06T19:47:45.728Z,101814.00
2023-05-06T19:50:12.875Z,101807.94
2023-05-06T19:52:39.555Z,101804.56
2023-05-06T19:55:06.491Z,101806.44
2023-05-06T19:57:33.828Z,101808.38
2023-05-06T20:00:00.336Z,101812.63
2023-05-06T20:02:26.830Z,101806.44
2023-05-06T20:04:53.228Z,101814.53
2023-05-06T20:07:20.957Z,101812.41
2023-05-06T20:09:47.552Z,101813.38
2023-05-06T20:12:13.993Z,101808.50
2023-05-06T20:14:40.532Z,101805.63
2023-05-06T20:17:06.872Z,101804.25
2023-05-06T20:19:33.215Z,101808.19
2023-05-06T20:22:00.259Z,101812.56
2023-05-06T20:24:29.448Z,101807.25
2023-05-06T20:26:56.235Z,101815.09
2023-05-06T20:29:22.622Z,101807.97
2023-05-06T20:31:49.100Z,101810.44
2023-05-06T20:34:15.483Z,101803.19
2023-05-06T20:36:42.967Z,101809.44
2023-05-06T20:39:12.768Z,101807.78
2023-05-06T20:41:39.141Z,101805.31
2023-05-06T20:44:05.680Z,101807.25
2023-05-06T20:46:32.927Z,101813.50
2023-05-06T20:48:59.886Z,101801.31
2023-05-06T20:51:27.616Z,101810.75
2023-05-06T20:53:58.329Z,101808.84
2023-05-06T20:56:26.204Z,101817.75
2023-05-06T20:58:53.687Z,101813.50
2023-05-06T21:01:21.882Z,101808.41
2023-05-06T21:03:49.058Z,101805.75
2023-05-06T21:06:17.056Z,101809.97
2023-05-06T21:08:44.637Z,101810.09
2023-05-06T21:11:11.137Z,101803.31
2023-05-06T21:13:37.640Z,101800.66
2023-05-06T21:16:04.504Z,101802.69
2023-05-06T21:18:31.018Z,101791.94
2023-05-06T21:20:57.651Z,101791.94
2023-05-06T21:23:24.069Z,101793.75
2023-05-06T21:25:50.399Z,101792.19
2023-05-06T21:28:16.806Z,101790.69
2023-05-06T21:30:43.181Z,101790.69
2023-05-06T21:33:11.127Z,101783.56
2023-05-06T21:35:37.809Z,101777.31
2023-05-06T21:38:04.192Z,101780.59
2023-05-06T21:40:30.599Z,101777.84
2023-05-06T21:42:57.004Z,101783.03
2023-05-06T21:45:23.446Z,101778.47
2023-05-06T21:47:49.973Z,101781.13
2023-05-06T21:50:16.403Z,101795.13
2023-05-06T21:52:42.846Z,101802.03
2023-05-06T21:55:09.610Z,101793.34
2023-05-06T21:57:36.121Z,101795.13
2023-05-06T22:00:08.625Z,101793.34
2023-05-06T22:02:35.163Z,101796.94
2023-05-06T22:05:01.616Z,101805.75
2023-05-06T22:07:28.006Z,101800.44
2023-05-06T22:09:54.412Z,101799.59
2023-05-06T22:12:20.767Z,101792.69
2023-05-06T22:14:47.118Z,101797.38
2023-05-06T22:17:13.577Z,101801.84
2023-05-06T22:19:40.770Z,101804.50
2023-05-06T22:22:07.824Z,101797.38
2023-05-06T22:24:34.266Z,101802.78
2023-05-06T22:27:01.599Z,101805.44
2023-05-06T22:29:27.989Z,101803.75
2023-05-06T22:31:54.390Z,101798.44
2023-05-06T22:34:20.840Z,101797.47
2023-05-06T22:36:47.361Z,101800.13
2023-05-06T22:39:13.848Z,101802.03
2023-05-06T22:41:40.213Z,101799.38
2023-05-06T22:44:06.663Z,101804.59
2023-05-06T22:46:33.174Z,101803.84
2023-05-06T22:49:00.098Z,101814.47
2023-05-06T22:51:26.578Z,101818.19
2023-05-06T22:53:53.039Z,101820.09
2023-05-06T22:56:20.002Z,101821.06
2023-05-06T22:58:46.404Z,101822.03
2023-05-06T23:01:12.903Z,101817.66
2023-05-06T23:03:39.365Z,101820.31
2023-05-06T23:06:06.037Z,101813.31
2023-05-06T23:08:32.667Z,101811.59
2023-05-06T23:10:59.227Z,101816.81
2023-05-06T23:13:26.440Z,101815.22
2023-05-06T23:15:53.028Z,101817.88
2023-05-06T23:18:20.528Z,101818.06
2023-05-06T23:20:46.965Z,101821.59
2023-05-06T23:23:13.362Z,101820.00
2023-05-06T23:25:39.793Z,101818.19
2023-05-06T23:28:06.252Z,101819.25
2023-05-06T23:30:32.649Z,101822.97
2023-05-06T23:32:59.130Z,101817.78
2023-05-06T23:35:25.954Z,101821.38
2023-05-06T23:37:52.371Z,101814.25
2023-05-06T23:40:18.744Z,101815.19
2023-05-06T23:42:45.173Z,101812.66
2023-05-06T23:45:12.041Z,101810.97
2023-05-06T23:47:38.661Z,101813.59
2023-05-06T23:50:05.505Z,101824.34
2023-05-06T23:52:31.887Z,101823.50
2023-05-06T23:54:58.234Z,101828.81
2023-05-06T23:57:24.631Z,101828.03
2023-05-06T23:59:51.142Z,101817.44
